Terminal Aerodrome Forecast
Issued by NWS

Home | Current Version | Previous Version | Graphics & Text | Print | Product List | Glossary On
Versions: 1 2 3 4 5 6 7 8 9 10 11 12 13 14 15 16 17 18 19 20 21 22 23 24 25 26
000
FTUS43 KGRB 200520
TAFCWA
TAF
KCWA 200520Z 2006/2106 08008KT P6SM BKN120
     FM201000 09010KT P6SM BKN060
     FM201300 09014G23KT P6SM SCT025 OVC050
      TEMPO 2015/2018 5SM -SHRA BKN025
     FM201800 08012G19KT 3SM RA BR OVC009
     FM210300 11008KT 4SM -SHRA BR OVC007=

USA.gov is the U.S. government's official web portal to all federal, state and local government web resources and services.